createdAt,value
2019-02-04T00:00:36.588Z,2.00
2019-02-04T00:03:07.710Z,2.00
2019-02-04T00:05:36.547Z,2.00
2019-02-04T00:08:05.853Z,2.00
2019-02-04T00:10:34.843Z,2.00
2019-02-04T00:13:04.783Z,2.00
2019-02-04T00:15:33.744Z,2.00
2019-02-04T00:18:02.989Z,2.00
2019-02-04T00:20:31.805Z,1.90
2019-02-04T00:23:00.592Z,1.90
2019-02-04T00:25:29.477Z,1.90
2019-02-04T00:27:58.287Z,1.90
2019-02-04T00:30:27.652Z,1.90
2019-02-04T00:32:56.437Z,1.90
2019-02-04T00:35:25.249Z,1.90
2019-02-04T00:37:54.143Z,1.90
2019-02-04T00:40:23.634Z,1.90
2019-02-04T00:42:52.502Z,1.90
2019-02-04T00:45:22.290Z,1.80
2019-02-04T00:47:51.173Z,1.80
2019-02-04T00:50:20.583Z,1.80
2019-02-04T00:52:49.445Z,1.80
2019-02-04T00:55:18.496Z,1.80
2019-02-04T00:57:47.365Z,1.80
2019-02-04T01:00:19.723Z,1.80
2019-02-04T01:02:48.872Z,1.70
2019-02-04T01:05:19.419Z,1.70
2019-02-04T01:07:49.070Z,1.70
2019-02-04T01:10:20.922Z,1.70
2019-02-04T01:12:49.886Z,1.70
2019-02-04T01:15:19.087Z,1.70
2019-02-04T01:17:48.161Z,1.70
2019-02-04T01:20:20.214Z,1.70
2019-02-04T01:22:49.001Z,1.70
2019-02-04T01:25:17.949Z,1.70
2019-02-04T01:27:46.865Z,1.70
2019-02-04T01:30:16.491Z,1.70
2019-02-04T01:32:45.665Z,1.70
2019-02-04T01:35:14.843Z,1.80
2019-02-04T01:37:44.200Z,1.70
2019-02-04T01:40:16.043Z,1.70
2019-02-04T01:42:44.962Z,1.80
2019-02-04T01:45:13.939Z,1.80
2019-02-04T01:47:42.813Z,1.80
2019-02-04T01:50:14.070Z,1.80
2019-02-04T01:52:42.925Z,1.80
2019-02-04T01:55:12.024Z,1.80
2019-02-04T01:57:41.174Z,1.80
2019-02-04T02:00:16.806Z,1.80
2019-02-04T02:02:45.806Z,1.70
2019-02-04T02:05:15.272Z,1.70
2019-02-04T02:07:44.304Z,1.80
2019-02-04T02:10:16.385Z,1.70
2019-02-04T02:12:45.407Z,1.70
2019-02-04T02:15:14.444Z,1.70
2019-02-04T02:17:43.505Z,1.70
2019-02-04T02:20:14.985Z,1.80
2019-02-04T02:22:43.862Z,1.80
2019-02-04T02:25:12.763Z,1.70
2019-02-04T02:27:41.779Z,1.70
2019-02-04T02:30:14.261Z,1.70
2019-02-04T02:32:43.380Z,1.70
2019-02-04T02:35:12.634Z,1.70
2019-02-04T02:37:41.441Z,1.70
2019-02-04T02:40:14.907Z,1.80
2019-02-04T02:42:43.707Z,1.70
2019-02-04T02:45:12.739Z,1.70
2019-02-04T02:47:41.547Z,1.70
2019-02-04T02:50:11.133Z,1.70
2019-02-04T02:52:40.021Z,1.70
2019-02-04T02:55:10.716Z,1.70
2019-02-04T02:57:39.511Z,1.80
2019-02-04T03:00:12.167Z,1.80
2019-02-04T03:02:41.093Z,1.80
2019-02-04T03:05:11.330Z,1.80
2019-02-04T03:07:40.193Z,1.70
2019-02-04T03:10:12.166Z,1.80
2019-02-04T03:12:40.975Z,1.70
2019-02-04T03:15:10.521Z,1.80
2019-02-04T03:17:51.641Z,1.80
2019-02-04T03:20:10.293Z,1.80
2019-02-04T03:22:39.320Z,1.80
2019-02-04T03:25:09.528Z,1.80
2019-02-04T03:27:39.061Z,1.80
2019-02-04T03:30:15.258Z,1.80
2019-02-04T03:32:44.105Z,1.80
2019-02-04T03:35:13.553Z,1.80
2019-02-04T03:37:42.322Z,1.80
2019-02-04T03:40:14.443Z,1.80
2019-02-04T03:42:43.327Z,1.80
2019-02-04T03:45:12.885Z,1.80
2019-02-04T03:47:43.234Z,1.80
2019-02-04T03:50:12.576Z,1.80
2019-02-04T03:52:41.430Z,1.80
2019-02-04T03:57:52.957Z,1.80
2019-02-04T04:00:26.858Z,1.80
2019-02-04T04:02:55.870Z,1.80
2019-02-04T04:05:25.337Z,1.80
2019-02-04T04:07:54.193Z,1.80
2019-02-04T04:10:23.654Z,1.80
2019-02-04T04:12:52.558Z,1.80
2019-02-04T04:15:21.458Z,1.80
2019-02-04T04:17:50.463Z,1.80
2019-02-04T04:20:20.137Z,1.80
2019-02-04T04:22:48.966Z,1.80
2019-02-04T04:25:18.092Z,1.90
2019-02-04T04:27:47.763Z,1.90
2019-02-04T04:30:34.846Z,1.90
2019-02-04T04:33:03.951Z,1.90
2019-02-04T04:35:32.764Z,1.90
2019-02-04T04:38:01.625Z,1.90
2019-02-04T04:40:30.482Z,1.90
2019-02-04T04:42:59.373Z,1.90
2019-02-04T04:45:28.253Z,1.90
2019-02-04T04:47:57.217Z,1.90
2019-02-04T04:50:26.110Z,1.90
2019-02-04T04:52:55.169Z,1.80
2019-02-04T04:55:26.021Z,1.80
2019-02-04T04:57:55.420Z,1.80
2019-02-04T05:00:27.077Z,1.80
2019-02-04T05:02:56.094Z,1.70
2019-02-04T05:05:24.966Z,1.70
2019-02-04T05:07:53.954Z,1.80
2019-02-04T05:10:23.327Z,1.70
2019-02-04T05:12:52.249Z,1.70
2019-02-04T05:15:23.759Z,1.70
2019-02-04T05:17:53.132Z,1.60
2019-02-04T05:20:23.143Z,1.50
2019-02-04T05:22:52.161Z,1.50
2019-02-04T05:25:21.330Z,1.40
2019-02-04T05:27:50.277Z,1.40
2019-02-04T05:30:22.566Z,1.40
2019-02-04T05:32:51.517Z,1.30
2019-02-04T05:35:20.819Z,1.30
2019-02-04T05:37:49.909Z,1.30
2019-02-04T05:40:18.880Z,1.30
2019-02-04T05:42:48.428Z,1.20
2019-02-04T05:45:19.244Z,1.20
2019-02-04T05:47:48.531Z,1.20
2019-02-04T05:50:18.554Z,1.20
2019-02-04T05:52:47.818Z,1.20
2019-02-04T05:55:18.130Z,1.20
2019-02-04T05:57:47.189Z,1.20
2019-02-04T06:00:20.811Z,1.20
2019-02-04T06:02:49.898Z,1.20
2019-02-04T06:05:19.136Z,1.20
2019-02-04T06:07:48.292Z,1.10
2019-02-04T06:10:17.511Z,1.10
2019-02-04T06:12:46.300Z,1.20
2019-02-04T06:15:15.260Z,1.10
2019-02-04T06:17:44.282Z,1.10
2019-02-04T06:20:15.902Z,1.20
2019-02-04T06:22:44.804Z,1.10
2019-02-04T06:25:14.281Z,1.10
2019-02-04T06:27:43.238Z,1.10
2019-02-04T06:30:12.514Z,1.20
2019-02-04T06:32:41.290Z,1.10
2019-02-04T06:35:10.414Z,1.20
2019-02-04T06:37:39.320Z,1.20
2019-02-04T06:40:10.041Z,1.20
2019-02-04T06:42:38.821Z,1.20
2019-02-04T06:45:09.855Z,1.20
2019-02-04T06:47:38.822Z,1.20
2019-02-04T06:50:09.780Z,1.20
2019-02-04T06:52:39.126Z,1.20
2019-02-04T06:55:12.299Z,1.30
2019-02-04T06:57:41.111Z,1.30
2019-02-04T07:00:11.508Z,1.30
2019-02-04T07:02:40.383Z,1.30
2019-02-04T07:05:09.643Z,1.30
2019-02-04T07:07:38.985Z,1.30
2019-02-04T07:10:12.269Z,1.40
2019-02-04T07:12:41.068Z,1.40
2019-02-04T07:15:10.583Z,1.40
2019-02-04T07:17:39.366Z,1.40
2019-02-04T07:20:11.012Z,1.40
2019-02-04T07:22:39.995Z,1.50
2019-02-04T07:25:10.426Z,1.50
2019-02-04T07:27:39.221Z,1.50
2019-02-04T07:30:12.078Z,1.50
2019-02-04T07:32:40.955Z,1.50
2019-02-04T07:35:11.061Z,1.50
2019-02-04T07:37:39.913Z,1.50
2019-02-04T07:40:15.559Z,1.60
2019-02-04T07:42:44.578Z,1.60
2019-02-04T07:45:13.953Z,1.60
2019-02-04T07:47:42.855Z,1.50
2019-02-04T07:50:12.114Z,1.60
2019-02-04T07:52:41.012Z,1.60
2019-02-04T07:55:10.199Z,1.60
2019-02-04T07:57:39.387Z,1.60
2019-02-04T08:00:13.409Z,1.70
2019-02-04T08:02:42.573Z,1.70
2019-02-04T08:05:11.603Z,1.70
2019-02-04T08:07:40.563Z,1.70
2019-02-04T08:10:13.591Z,1.70
2019-02-04T08:12:42.530Z,1.70
2019-02-04T08:15:14.419Z,1.80
2019-02-04T08:17:43.321Z,1.80
2019-02-04T08:20:12.512Z,1.80
2019-02-04T08:22:41.322Z,1.80
2019-02-04T08:25:11.349Z,1.80
2019-02-04T08:27:40.240Z,1.80
2019-02-04T08:30:14.331Z,1.80
2019-02-04T08:32:43.211Z,1.90
2019-02-04T08:35:12.537Z,1.90
2019-02-04T08:37:41.425Z,1.90
2019-02-04T08:40:10.621Z,2.00
2019-02-04T08:42:40.281Z,2.00
2019-02-04T08:45:11.872Z,2.00
2019-02-04T08:47:40.751Z,2.00
2019-02-04T08:50:11.377Z,2.10
2019-02-04T08:52:40.184Z,2.10
2019-02-04T08:55:10.247Z,2.10
2019-02-04T08:57:39.201Z,2.20
2019-02-04T09:00:11.536Z,2.20
2019-02-04T09:02:40.398Z,2.20
2019-02-04T09:05:10.006Z,2.20
2019-02-04T09:07:39.021Z,2.20
2019-02-04T09:10:10.274Z,2.30
2019-02-04T09:12:39.078Z,2.30
2019-02-04T09:15:10.959Z,2.30
2019-02-04T09:17:40.121Z,2.30
2019-02-04T09:20:10.761Z,2.30
2019-02-04T09:22:39.757Z,2.40
2019-02-04T09:25:11.337Z,2.40
2019-02-04T09:27:40.128Z,2.40
2019-02-04T09:30:13.807Z,2.40
2019-02-04T09:32:42.695Z,2.40
2019-02-04T09:35:13.139Z,2.40
2019-02-04T09:37:42.058Z,2.40
2019-02-04T09:40:20.130Z,2.40
2019-02-04T09:42:49.377Z,2.40
2019-02-04T09:45:18.321Z,2.40
2019-02-04T09:47:47.478Z,2.40
2019-02-04T09:50:21.728Z,2.50
2019-02-04T09:52:48.543Z,2.50
2019-02-04T09:55:20.118Z,2.50
2019-02-04T09:57:50.826Z,2.60
2019-02-04T10:00:22.722Z,2.60
2019-02-04T10:02:51.847Z,2.60
2019-02-04T10:05:21.169Z,2.60
2019-02-04T10:07:50.046Z,2.60
2019-02-04T10:10:21.747Z,2.60
2019-02-04T10:12:52.519Z,2.70
2019-02-04T10:15:23.630Z,2.70
2019-02-04T10:17:52.524Z,2.70
2019-02-04T10:20:33.087Z,2.80
2019-02-04T10:22:52.250Z,2.80
2019-02-04T10:25:23.304Z,2.80
2019-02-04T10:27:52.461Z,2.80
2019-02-04T10:30:23.330Z,2.90
2019-02-04T10:32:52.477Z,2.90
2019-02-04T10:35:21.988Z,2.90
2019-02-04T10:37:51.539Z,2.90
2019-02-04T10:40:22.209Z,3.00
2019-02-04T10:42:51.271Z,3.00
2019-02-04T10:45:20.786Z,3.10
2019-02-04T10:47:50.144Z,3.10
2019-02-04T10:50:21.739Z,3.10
2019-02-04T10:52:50.580Z,3.10
2019-02-04T10:55:19.903Z,3.10
2019-02-04T10:57:48.977Z,3.10
2019-02-04T11:00:20.024Z,3.20
2019-02-04T11:02:49.084Z,3.20
2019-02-04T11:05:23.032Z,3.20
2019-02-04T11:07:52.180Z,3.20
2019-02-04T11:10:22.955Z,3.20
2019-02-04T11:12:52.178Z,3.20
2019-02-04T11:15:25.562Z,3.20
2019-02-04T11:17:53.559Z,3.20
2019-02-04T11:20:24.705Z,3.30
2019-02-04T11:22:53.656Z,3.30
2019-02-04T11:25:22.737Z,3.30
2019-02-04T11:27:51.669Z,3.30
2019-02-04T11:30:26.125Z,3.30
2019-02-04T11:32:55.796Z,3.40
2019-02-04T11:35:24.993Z,3.40
2019-02-04T11:37:53.903Z,3.40
2019-02-04T11:40:26.454Z,3.40
2019-02-04T11:42:55.407Z,3.40
2019-02-04T11:45:24.707Z,3.40
2019-02-04T11:47:54.041Z,3.40
2019-02-04T11:50:22.861Z,3.40
2019-02-04T11:52:51.935Z,3.50
2019-02-04T11:55:21.176Z,3.50
2019-02-04T11:57:50.166Z,3.50
2019-02-04T12:00:21.145Z,3.50
2019-02-04T12:02:51.075Z,3.50
2019-02-04T12:05:20.855Z,3.50
2019-02-04T12:07:50.011Z,3.50
2019-02-04T12:10:30.969Z,3.50
2019-02-04T12:13:00.530Z,3.50
2019-02-04T12:15:29.390Z,3.40
2019-02-04T12:17:58.279Z,3.40
2019-02-04T12:20:27.456Z,3.40
2019-02-04T12:22:56.529Z,3.30
2019-02-04T12:25:27.157Z,3.30
2019-02-04T12:27:57.013Z,3.20
2019-02-04T12:30:30.957Z,3.20
2019-02-04T12:32:59.484Z,3.10
2019-02-04T12:35:28.294Z,3.10
2019-02-04T12:37:57.312Z,3.10
2019-02-04T12:40:26.463Z,3.00
2019-02-04T12:42:55.503Z,2.90
2019-02-04T12:45:29.527Z,2.80
2019-02-04T12:48:00.900Z,2.80
2019-02-04T12:50:29.347Z,2.80
2019-02-04T12:52:58.221Z,2.70
2019-02-04T12:55:28.796Z,2.70
2019-02-04T12:57:57.946Z,2.60
2019-02-04T13:00:28.283Z,2.60
2019-02-04T13:02:57.604Z,2.60
2019-02-04T13:05:41.657Z,2.50
2019-02-04T13:08:11.505Z,2.50
2019-02-04T13:10:40.855Z,2.60
2019-02-04T13:13:12.689Z,2.50
2019-02-04T13:15:41.481Z,2.50
2019-02-04T13:18:10.817Z,2.50
2019-02-04T13:20:40.754Z,2.50
2019-02-04T13:23:10.096Z,2.50
2019-02-04T13:25:38.880Z,2.50
2019-02-04T13:28:17.011Z,2.50
2019-02-04T13:30:45.838Z,2.50
2019-02-04T13:33:14.767Z,2.50
2019-02-04T13:35:43.720Z,2.50
2019-02-04T13:38:12.653Z,2.50
2019-02-04T13:40:44.510Z,2.50
2019-02-04T13:43:13.987Z,2.50
2019-02-04T13:45:42.852Z,2.50
2019-02-04T13:48:12.452Z,2.50
2019-02-04T13:50:41.546Z,2.40
2019-02-04T13:53:10.758Z,2.40
2019-02-04T13:55:40.036Z,2.30
2019-02-04T13:58:09.432Z,2.40
2019-02-04T14:00:38.673Z,2.30
2019-02-04T14:03:08.741Z,2.30
2019-02-04T14:05:37.897Z,2.40
2019-02-04T14:08:07.369Z,2.40
2019-02-04T14:10:38.440Z,2.40
2019-02-04T14:13:07.841Z,2.40
2019-02-04T14:15:37.937Z,2.50
2019-02-04T14:18:07.989Z,2.50
2019-02-04T14:20:36.939Z,2.50
2019-02-04T14:23:06.011Z,2.50
2019-02-04T14:25:35.151Z,2.50
2019-02-04T14:28:04.801Z,2.50
2019-02-04T14:30:36.379Z,2.50
2019-02-04T14:33:05.861Z,2.50
2019-02-04T14:35:35.099Z,2.50
2019-02-04T14:38:05.181Z,2.50
2019-02-04T14:40:34.093Z,2.50
2019-02-04T14:43:34.777Z,2.50
2019-02-04T14:46:21.888Z,2.50
2019-02-04T14:49:44.690Z,2.50
2019-02-04T14:52:25.123Z,2.50
2019-02-04T14:55:21.246Z,2.50
2019-02-04T14:58:02.056Z,2.60
2019-02-04T15:01:11.520Z,2.60
2019-02-04T15:04:02.291Z,2.60
2019-02-04T15:07:02.029Z,2.60
2019-02-04T15:10:02.532Z,2.60
2019-02-04T15:13:00.305Z,2.60
2019-02-04T15:15:46.981Z,2.60
2019-02-04T15:18:50.109Z,2.60
2019-02-04T15:22:06.452Z,2.60
2019-02-04T15:25:10.938Z,2.60
2019-02-04T15:28:27.203Z,2.60
2019-02-04T15:31:44.360Z,2.60
2019-02-04T15:35:04.164Z,2.60
2019-02-04T15:37:48.015Z,2.60
2019-02-04T15:40:41.151Z,2.60
2019-02-04T15:44:01.251Z,2.60
2019-02-04T15:46:42.409Z,2.60
2019-02-04T15:49:50.783Z,2.60
2019-02-04T15:52:17.198Z,2.60
2019-02-04T15:54:46.305Z,2.60
2019-02-04T15:57:15.271Z,2.60
2019-02-04T15:59:44.122Z,2.60
2019-02-04T16:02:13.128Z,2.70
2019-02-04T16:04:41.934Z,2.70
2019-02-04T16:07:12.243Z,2.70
2019-02-04T16:09:41.075Z,2.70
2019-02-04T16:12:10.111Z,2.70
2019-02-04T16:14:39.052Z,2.70
2019-02-04T16:17:10.263Z,2.80
2019-02-04T16:19:39.154Z,2.80
2019-02-04T16:22:08.101Z,2.80
2019-02-04T16:24:37.151Z,2.80
2019-02-04T16:27:06.227Z,2.80
2019-02-04T16:29:35.066Z,2.80
2019-02-04T16:32:04.734Z,2.80
2019-02-04T16:34:33.540Z,2.80
2019-02-04T16:37:02.422Z,2.80
2019-02-04T16:39:31.287Z,2.80
2019-02-04T16:42:01.247Z,2.80
2019-02-04T16:44:30.329Z,2.80
2019-02-04T16:46:59.263Z,2.80
2019-02-04T16:49:28.320Z,2.80
2019-02-04T16:51:57.327Z,2.80
2019-02-04T16:54:26.213Z,2.80
2019-02-04T16:56:55.240Z,2.80
2019-02-04T16:59:24.185Z,2.80
2019-02-04T17:01:53.132Z,2.80
2019-02-04T17:04:22.115Z,2.90
2019-02-04T17:06:51.121Z,2.80
2019-02-04T17:09:20.009Z,2.80
2019-02-04T17:11:48.994Z,2.80
2019-02-04T17:14:18.159Z,2.80
2019-02-04T17:16:47.032Z,2.80
2019-02-04T17:19:15.875Z,2.80
2019-02-04T17:21:44.686Z,2.80
2019-02-04T17:24:13.490Z,2.80
2019-02-04T17:26:42.321Z,2.90
2019-02-04T17:29:11.511Z,2.90
2019-02-04T17:31:40.300Z,2.90
2019-02-04T17:34:09.089Z,2.90
2019-02-04T17:36:37.938Z,2.90
2019-02-04T17:39:08.475Z,2.90
2019-02-04T17:41:37.486Z,2.90
2019-02-04T17:44:07.409Z,2.90
2019-02-04T17:46:36.240Z,2.90
2019-02-04T17:49:05.561Z,2.90
2019-02-04T17:51:34.422Z,2.80
2019-02-04T17:54:05.148Z,2.90
2019-02-04T17:56:34.008Z,2.90
2019-02-04T17:59:03.631Z,2.90
2019-02-04T18:01:32.531Z,2.90
2019-02-04T18:04:01.451Z,2.90
2019-02-04T18:06:31.670Z,2.90
2019-02-04T18:09:00.669Z,2.90
2019-02-04T18:11:29.501Z,2.90
2019-02-04T18:13:58.687Z,2.90
2019-02-04T18:16:27.582Z,2.90
2019-02-04T18:18:56.434Z,2.90
2019-02-04T18:21:25.333Z,2.90
2019-02-04T18:23:54.252Z,2.90
2019-02-04T18:26:23.158Z,3.00
2019-02-04T18:28:52.703Z,2.90
2019-02-04T18:31:21.532Z,3.00
2019-02-04T18:33:50.649Z,3.00
2019-02-04T18:36:19.519Z,3.00
2019-02-04T18:38:48.317Z,3.00
2019-02-04T18:41:17.173Z,3.00
2019-02-04T18:43:45.991Z,3.00
2019-02-04T18:46:15.262Z,3.00
2019-02-04T18:48:44.610Z,3.00
2019-02-04T18:51:13.487Z,3.00
2019-02-04T18:53:42.457Z,3.10
2019-02-04T18:56:11.781Z,3.10
2019-02-04T18:58:40.976Z,3.10
2019-02-04T19:01:10.056Z,3.10
2019-02-04T19:03:38.979Z,3.10
2019-02-04T19:06:08.161Z,3.10
2019-02-04T19:08:38.310Z,3.20
2019-02-04T19:11:09.778Z,3.20
2019-02-04T19:13:38.610Z,3.20
2019-02-04T19:16:09.547Z,3.20
2019-02-04T19:18:38.428Z,3.20
2019-02-04T19:21:07.671Z,3.20
2019-02-04T19:23:36.499Z,3.20
2019-02-04T19:26:05.641Z,3.20
2019-02-04T19:28:34.474Z,3.20
2019-02-04T19:31:27.512Z,3.20
2019-02-04T19:33:56.455Z,3.30
2019-02-04T19:36:25.671Z,3.30
2019-02-04T19:38:54.646Z,3.30
2019-02-04T19:41:23.589Z,3.30
2019-02-04T19:43:53.262Z,3.30
2019-02-04T19:46:22.147Z,3.30
2019-02-04T19:48:51.216Z,3.30
2019-02-04T19:51:20.587Z,3.30
2019-02-04T19:53:50.807Z,3.30
2019-02-04T19:56:20.298Z,3.30
2019-02-04T19:58:51.254Z,3.30
2019-02-04T20:01:22.181Z,3.40
2019-02-04T20:03:52.987Z,3.30
2019-02-04T20:06:23.784Z,3.30
2019-02-04T20:08:54.635Z,3.30
2019-02-04T20:11:25.953Z,3.30
2019-02-04T20:13:54.866Z,3.30
2019-02-04T20:16:23.630Z,3.30
2019-02-04T20:18:53.033Z,3.30
2019-02-04T20:21:21.927Z,3.30
2019-02-04T20:23:50.724Z,3.30
2019-02-04T20:26:19.525Z,3.30
2019-02-04T20:28:48.502Z,3.40
2019-02-04T20:31:17.322Z,3.40
2019-02-04T20:33:46.523Z,3.40
2019-02-04T20:36:15.490Z,3.40
2019-02-04T20:38:44.372Z,3.40
2019-02-04T20:41:13.293Z,3.40
2019-02-04T20:43:42.143Z,3.40
2019-02-04T20:46:11.033Z,3.40
2019-02-04T20:48:40.043Z,3.40
2019-02-04T20:51:09.226Z,3.40
2019-02-04T20:53:37.987Z,3.40
2019-02-04T20:56:06.916Z,3.50
2019-02-04T20:58:35.709Z,3.50
2019-02-04T21:01:04.943Z,3.50
2019-02-04T21:03:33.892Z,3.50
2019-02-04T21:06:03.140Z,3.50
2019-02-04T21:08:32.191Z,3.50
2019-02-04T21:11:00.952Z,3.50
2019-02-04T21:13:29.847Z,3.50
2019-02-04T21:15:58.661Z,3.50
2019-02-04T21:18:27.445Z,3.50
2019-02-04T21:20:56.886Z,3.50
2019-02-04T21:23:25.676Z,3.50
2019-02-04T21:25:54.484Z,3.50
2019-02-04T21:28:23.286Z,3.50
2019-02-04T21:30:52.058Z,3.50
2019-02-04T21:33:20.850Z,3.50
2019-02-04T21:35:49.686Z,3.50
2019-02-04T21:38:18.634Z,3.50
2019-02-04T21:40:47.450Z,3.50
2019-02-04T21:43:16.418Z,3.50
2019-02-04T21:45:45.302Z,3.50
2019-02-04T21:48:14.136Z,3.50
2019-02-04T21:50:42.921Z,3.60
2019-02-04T21:53:11.871Z,3.60
2019-02-04T21:55:40.667Z,3.60
2019-02-04T21:58:09.535Z,3.60
2019-02-04T22:00:40.463Z,3.60
2019-02-04T22:03:09.419Z,3.60
2019-02-04T22:05:38.404Z,3.60
2019-02-04T22:08:07.850Z,3.60
2019-02-04T22:10:36.691Z,3.60
2019-02-04T22:13:05.875Z,3.60
2019-02-04T22:15:35.292Z,3.60
2019-02-04T22:18:04.820Z,3.60
2019-02-04T22:20:34.287Z,3.60
2019-02-04T22:23:03.189Z,3.60
2019-02-04T22:25:31.987Z,3.60
2019-02-04T22:28:00.877Z,3.60
2019-02-04T22:30:30.626Z,3.60
2019-02-04T22:32:59.663Z,3.60
2019-02-04T22:35:28.652Z,3.60
2019-02-04T22:37:57.969Z,3.60
2019-02-04T22:40:30.028Z,3.60
2019-02-04T22:42:59.724Z,3.60
2019-02-04T22:45:28.738Z,3.70
2019-02-04T22:47:57.862Z,3.70
2019-02-04T22:50:28.562Z,3.70
2019-02-04T22:52:58.495Z,3.70
2019-02-04T22:55:31.957Z,3.70
2019-02-04T22:57:58.407Z,3.70
2019-02-04T23:00:51.581Z,3.70
2019-02-04T23:03:21.800Z,3.70
2019-02-04T23:08:53.849Z,3.70
2019-02-04T23:11:22.979Z,3.70
2019-02-04T23:13:51.794Z,3.80
2019-02-04T23:19:08.167Z,3.70
2019-02-04T23:21:37.688Z,3.70
2019-02-04T23:24:07.358Z,3.80
2019-02-04T23:26:36.354Z,3.70
2019-02-04T23:29:06.149Z,3.80
2019-02-04T23:31:35.215Z,3.80
2019-02-04T23:34:04.598Z,3.80
2019-02-04T23:36:33.815Z,3.80
2019-02-04T23:39:03.136Z,3.80
2019-02-04T23:41:32.029Z,3.80
2019-02-04T23:44:00.911Z,3.80
2019-02-04T23:46:29.712Z,3.80
2019-02-04T23:48:59.444Z,3.80
2019-02-04T23:51:28.672Z,3.80
2019-02-04T23:53:57.471Z,3.80
2019-02-04T23:56:26.377Z,3.80
2019-02-04T23:58:55.367Z,3.90
